Time;durP1;ratioP1;P1;durP2;ratioP2;P2;SDS_P1;SDS_P2;PMS_P1;PMS_P2;Temp;Humidity;BMP_temperature;BMP_pressure;BME280_temperature;BME280_humidity;BME280_pressure;Samples;Min_cycle;Max_cycle;Signal;HPM_P1;HPM_P2
2022/06/29 00:01:57;;;;;;;;;;;15.70;99.90;;;;;;5106740;27;19923;-76
2022/06/29 00:04:22;;;;;;;;;;;15.70;99.90;;;;;;5120254;27;19926;-76
2022/06/29 00:06:48;;;;;;;;;;;15.80;99.90;;;;;;5127245;27;20284;-76
2022/06/29 00:09:13;;;;;;;;;;;15.80;99.90;;;;;;5125304;27;20010;-77
2022/06/29 00:11:39;;;;;;;;;;;15.70;99.90;;;;;;5116141;27;19931;-77
2022/06/29 00:14:04;;;;;;;;;;;15.60;99.90;;;;;;5113085;28;19924;-78
2022/06/29 00:16:30;;;;;;;;;;;15.70;99.90;;;;;;5112928;28;19920;-78
2022/06/29 00:18:56;;;;;;;;;;;15.70;99.90;;;;;;5096014;28;20410;-78
2022/06/29 00:21:21;;;;;;;;;;;15.60;99.90;;;;;;5125524;27;20117;-78
2022/06/29 00:23:47;;;;;;;;;;;15.60;99.90;;;;;;5121552;27;20429;-78
2022/06/29 00:26:12;;;;;;;;;;;15.50;99.90;;;;;;5118193;27;20024;-78
2022/06/29 00:28:38;;;;;;;;;;;15.50;99.90;;;;;;5109162;28;19919;-78
2022/06/29 00:31:03;;;;;;;;;;;15.50;99.90;;;;;;5095669;28;19920;-78
2022/06/29 00:33:29;;;;;;;;;;;15.50;99.90;;;;;;5100039;27;19930;-78
2022/06/29 00:35:55;;;;;;;;;;;15.40;99.90;;;;;;5132559;27;20059;-78
2022/06/29 00:38:20;;;;;;;;;;;15.40;99.90;;;;;;5114254;27;19923;-77
2022/06/29 00:40:46;;;;;;;;;;;15.20;99.90;;;;;;5095453;28;20006;-78
2022/06/29 00:43:11;;;;;;;;;;;15.20;99.90;;;;;;5113389;27;19923;-78
2022/06/29 00:45:37;;;;;;;;;;;15.20;99.90;;;;;;5133118;27;19919;-78
2022/06/29 00:48:03;;;;;;;;;;;15.20;99.90;;;;;;5117232;27;19919;-78
2022/06/29 00:50:30;;;;;;;;;;;15.00;99.90;;;;;;5093052;28;20265;-78
2022/06/29 00:52:59;;;;;;;;;;;15.10;99.90;;;;;;5126233;27;20006;-78
2022/06/29 00:55:26;;;;;;;;;;;15.00;99.90;;;;;;5102296;28;19981;-77
2022/06/29 00:57:53;;;;;;;;;;;14.90;99.90;;;;;;5114543;28;19945;-78
2022/06/29 01:00:18;;;;;;;;;;;15.00;99.90;;;;;;5120316;27;19972;-78
2022/06/29 01:02:44;;;;;;;;;;;14.90;99.90;;;;;;5132781;27;19919;-78
2022/06/29 01:05:10;;;;;;;;;;;14.90;99.90;;;;;;5133399;27;19920;-78
2022/06/29 01:07:35;;;;;;;;;;;14.90;99.90;;;;;;5118972;27;19933;-77
2022/06/29 01:10:02;;;;;;;;;;;14.80;99.90;;;;;;5118496;27;19919;-77
2022/06/29 01:12:27;;;;;;;;;;;14.90;99.90;;;;;;5099187;28;20007;-77
2022/06/29 01:14:53;;;;;;;;;;;14.80;99.90;;;;;;5116980;27;19974;-77
2022/06/29 01:17:19;;;;;;;;;;;14.70;99.90;;;;;;5103660;28;20338;-77
2022/06/29 01:19:45;;;;;;;;;;;14.80;99.90;;;;;;5100210;27;20384;-76
2022/06/29 01:22:21;;;;;;;;;;;14.70;99.90;;;;;;5126655;27;19943;-77
2022/06/29 01:24:47;;;;;;;;;;;14.80;99.90;;;;;;5128518;28;19930;-77
2022/06/29 01:27:13;;;;;;;;;;;15.00;99.90;;;;;;5133720;28;19912;-77
2022/06/29 01:29:39;;;;;;;;;;;14.80;99.90;;;;;;5123607;28;19940;-77
2022/06/29 01:32:05;;;;;;;;;;;14.70;99.90;;;;;;5116732;28;19980;-77
2022/06/29 01:34:31;;;;;;;;;;;14.80;99.90;;;;;;5116549;28;19924;-76
2022/06/29 01:36:57;;;;;;;;;;;14.70;99.90;;;;;;5125963;28;20379;-77
2022/06/29 01:39:23;;;;;;;;;;;14.60;99.90;;;;;;5115752;28;20379;-77
2022/06/29 01:41:48;;;;;;;;;;;14.90;99.90;;;;;;5134245;27;19927;-77
2022/06/29 01:44:14;;;;;;;;;;;14.80;99.90;;;;;;5137162;27;19919;-77
2022/06/29 01:46:39;;;;;;;;;;;14.80;99.90;;;;;;5117924;27;20434;-77
2022/06/29 01:49:05;;;;;;;;;;;14.80;99.90;;;;;;5099000;28;19962;-77
2022/06/29 01:51:31;;;;;;;;;;;14.70;99.90;;;;;;5098342;28;19919;-77
2022/06/29 01:53:57;;;;;;;;;;;14.90;99.90;;;;;;5126583;27;19919;-77
2022/06/29 01:56:23;;;;;;;;;;;14.90;99.90;;;;;;5122034;27;20006;-77
2022/06/29 01:58:48;;;;;;;;;;;15.00;99.90;;;;;;5109056;28;19920;-77
2022/06/29 02:01:14;;;;;;;;;;;15.00;99.90;;;;;;5128972;27;19924;-77
2022/06/29 02:03:39;;;;;;;;;;;15.00;99.90;;;;;;5115232;28;19924;-77
2022/06/29 02:06:05;;;;;;;;;;;15.00;99.90;;;;;;5116260;27;20010;-77
2022/06/29 02:08:31;;;;;;;;;;;15.10;99.90;;;;;;5117799;27;19919;-77
2022/06/29 02:11:00;;;;;;;;;;;15.00;99.90;;;;;;5123006;27;20370;-77
2022/06/29 02:13:26;;;;;;;;;;;15.20;99.90;;;;;;5115290;28;19919;-77
2022/06/29 02:15:52;;;;;;;;;;;15.20;99.90;;;;;;5115537;28;20299;-77
2022/06/29 02:18:17;;;;;;;;;;;15.10;99.90;;;;;;5119968;27;19923;-76
2022/06/29 02:20:43;;;;;;;;;;;15.30;99.90;;;;;;5123839;27;19928;-77
2022/06/29 02:23:08;;;;;;;;;;;15.30;99.90;;;;;;5116650;27;19934;-78
2022/06/29 02:25:34;;;;;;;;;;;15.40;99.90;;;;;;5116909;27;20003;-77
2022/06/29 02:28:00;;;;;;;;;;;15.30;99.90;;;;;;5118008;27;19942;-77
2022/06/29 02:35:54;;;;;;;;;;;15.40;99.90;;;;;;5128359;27;20387;-77
2022/06/29 02:38:19;;;;;;;;;;;15.40;99.90;;;;;;5128792;27;19923;-77
2022/06/29 02:40:45;;;;;;;;;;;15.40;99.90;;;;;;5108282;27;19931;-77
2022/06/29 02:43:11;;;;;;;;;;;15.40;99.90;;;;;;5131662;27;20371;-77
2022/06/29 02:45:36;;;;;;;;;;;15.30;99.90;;;;;;5123542;27;20360;-77
2022/06/29 02:48:02;;;;;;;;;;;15.30;99.90;;;;;;5134940;27;19920;-77
2022/06/29 02:50:28;;;;;;;;;;;15.20;99.90;;;;;;5114279;28;19920;-77
2022/06/29 02:52:53;;;;;;;;;;;15.20;99.90;;;;;;5129292;27;20283;-77
2022/06/29 02:55:19;;;;;;;;;;;15.20;99.90;;;;;;5110210;27;19977;-77
2022/06/29 02:57:44;;;;;;;;;;;15.10;99.90;;;;;;5114298;27;19937;-77
2022/06/29 03:00:11;;;;;;;;;;;15.20;99.90;;;;;;5135613;27;19923;-77
2022/06/29 03:02:36;;;;;;;;;;;15.20;99.90;;;;;;5134550;27;19923;-77
2022/06/29 03:05:02;;;;;;;;;;;15.10;99.90;;;;;;5128351;27;19972;-78
2022/06/29 03:07:28;;;;;;;;;;;15.10;99.90;;;;;;5112966;28;19967;-77
2022/06/29 03:09:53;;;;;;;;;;;15.10;99.90;;;;;;5125924;27;19990;-77
2022/06/29 03:12:19;;;;;;;;;;;15.00;99.90;;;;;;5113982;28;19923;-77
2022/06/29 03:14:44;;;;;;;;;;;15.00;99.90;;;;;;5112577;28;20014;-77
2022/06/29 03:17:10;;;;;;;;;;;15.00;99.90;;;;;;5123731;27;19920;-78
2022/06/29 03:19:35;;;;;;;;;;;15.00;99.90;;;;;;5131864;27;19919;-77
2022/06/29 03:22:01;;;;;;;;;;;15.00;99.90;;;;;;5113307;28;19924;-77
2022/06/29 03:24:27;;;;;;;;;;;14.90;99.90;;;;;;5127357;27;19927;-77
2022/06/29 03:26:53;;;;;;;;;;;14.80;99.90;;;;;;5097569;28;20345;-77
2022/06/29 03:29:18;;;;;;;;;;;14.80;99.90;;;;;;5114272;28;20006;-77
2022/06/29 03:31:44;;;;;;;;;;;14.90;99.90;;;;;;5116113;27;19927;-77
2022/06/29 03:34:09;;;;;;;;;;;14.80;99.90;;;;;;5133985;27;19923;-77
2022/06/29 03:36:35;;;;;;;;;;;14.60;99.90;;;;;;5128221;27;19930;-78
2022/06/29 03:39:00;;;;;;;;;;;14.80;99.90;;;;;;5096968;28;19926;-77
2022/06/29 03:41:26;;;;;;;;;;;14.80;99.90;;;;;;5127408;27;19927;-78
2022/06/29 03:43:51;;;;;;;;;;;14.60;99.90;;;;;;5105410;28;19919;-78
2022/06/29 03:46:17;;;;;;;;;;;14.80;99.90;;;;;;5135260;27;20417;-78
2022/06/29 03:48:43;;;;;;;;;;;14.80;99.90;;;;;;5102893;28;19928;-78
2022/06/29 03:51:08;;;;;;;;;;;14.80;99.90;;;;;;5118794;27;20001;-78
2022/06/29 03:53:34;;;;;;;;;;;14.70;99.90;;;;;;5115417;28;20281;-78
2022/06/29 03:56:00;;;;;;;;;;;14.80;99.90;;;;;;5086076;28;19989;-78
2022/06/29 03:58:26;;;;;;;;;;;14.70;99.90;;;;;;5127086;27;20296;-78
2022/06/29 04:00:51;;;;;;;;;;;14.80;99.90;;;;;;5113447;28;19930;-78
2022/06/29 04:03:17;;;;;;;;;;;15.30;99.90;;;;;;5114436;27;19923;-78
2022/06/29 04:05:43;;;;;;;;;;;15.00;99.90;;;;;;5105161;27;20288;-78
2022/06/29 04:08:08;;;;;;;;;;;14.80;99.90;;;;;;5132861;27;20285;-78
2022/06/29 04:10:34;;;;;;;;;;;15.00;99.90;;;;;;5120354;27;20405;-78
2022/06/29 04:13:00;;;;;;;;;;;14.90;99.90;;;;;;5103071;28;20392;-79
2022/06/29 04:15:25;;;;;;;;;;;15.00;99.90;;;;;;5126235;27;19930;-78
2022/06/29 04:17:51;;;;;;;;;;;15.00;99.90;;;;;;5112945;28;20014;-78
2022/06/29 04:23:02;;;;;;;;;;;15.00;99.90;;;;;;5104694;27;20285;-79
2022/06/29 04:25:28;;;;;;;;;;;15.10;99.90;;;;;;5110926;28;20056;-78
2022/06/29 04:27:53;;;;;;;;;;;15.10;99.90;;;;;;5096323;28;19988;-78
2022/06/29 04:30:19;;;;;;;;;;;14.90;99.90;;;;;;5127617;27;19931;-78
2022/06/29 04:32:45;;;;;;;;;;;14.90;99.90;;;;;;5095638;28;19924;-78
2022/06/29 04:35:10;;;;;;;;;;;15.00;99.90;;;;;;5098091;27;19969;-78
2022/06/29 04:37:36;;;;;;;;;;;15.00;99.90;;;;;;5123283;27;19923;-78
2022/06/29 04:40:03;;;;;;;;;;;15.00;99.90;;;;;;5113803;27;20011;-78
2022/06/29 04:42:29;;;;;;;;;;;15.10;99.90;;;;;;5133160;27;19919;-78
2022/06/29 04:44:54;;;;;;;;;;;15.20;99.90;;;;;;5116805;27;19965;-78
2022/06/29 04:47:20;;;;;;;;;;;15.30;99.90;;;;;;5113337;28;19989;-78
2022/06/29 04:49:45;;;;;;;;;;;15.30;99.90;;;;;;5109883;27;19920;-78
2022/06/29 04:52:12;;;;;;;;;;;15.40;99.90;;;;;;5111795;28;19942;-77
2022/06/29 04:54:37;;;;;;;;;;;15.50;99.90;;;;;;5112073;28;20369;-78
2022/06/29 04:57:03;;;;;;;;;;;15.70;99.90;;;;;;5121611;27;20018;-78
2022/06/29 04:59:29;;;;;;;;;;;15.90;99.90;;;;;;5114000;27;20289;-78
2022/06/29 05:01:55;;;;;;;;;;;15.80;99.90;;;;;;5111746;28;19971;-78
2022/06/29 05:04:20;;;;;;;;;;;16.00;99.90;;;;;;5125305;27;19924;-79
2022/06/29 05:06:46;;;;;;;;;;;16.10;99.90;;;;;;5125719;27;19919;-78
2022/06/29 05:09:11;;;;;;;;;;;16.20;99.90;;;;;;5112232;28;20286;-77
2022/06/29 05:11:37;;;;;;;;;;;16.30;99.90;;;;;;5099763;27;19920;-77
2022/06/29 05:14:03;;;;;;;;;;;16.40;99.90;;;;;;5132296;27;20369;-78
2022/06/29 05:16:28;;;;;;;;;;;16.50;99.90;;;;;;5131319;27;19927;-78
2022/06/29 05:18:54;;;;;;;;;;;16.90;99.90;;;;;;5123556;27;20380;-78
2022/06/29 05:21:26;;;;;;;;;;;16.70;99.90;;;;;;5110338;28;19977;-78
2022/06/29 05:23:51;;;;;;;;;;;16.80;99.90;;;;;;5074194;28;19920;-79
2022/06/29 05:26:17;;;;;;;;;;;16.90;99.90;;;;;;5107012;28;19920;-77
2022/06/29 05:28:44;;;;;;;;;;;17.00;99.90;;;;;;5114071;27;19930;-80
2022/06/29 05:31:10;;;;;;;;;;;17.10;99.90;;;;;;5133112;27;19923;-77
2022/06/29 05:33:36;;;;;;;;;;;17.10;99.90;;;;;;5110208;28;19920;-77
2022/06/29 05:36:06;;;;;;;;;;;17.20;99.90;;;;;;5112524;28;19924;-79
2022/06/29 05:38:32;;;;;;;;;;;17.30;99.90;;;;;;5111104;28;20013;-78
2022/06/29 05:41:00;;;;;;;;;;;17.30;99.90;;;;;;5121881;28;19931;-78
2022/06/29 05:43:30;;;;;;;;;;;17.30;99.90;;;;;;5124965;28;19927;-77
2022/06/29 05:45:55;;;;;;;;;;;17.40;99.90;;;;;;5122832;28;19934;-78
2022/06/29 05:48:21;;;;;;;;;;;17.40;99.90;;;;;;5118201;28;19920;-77
2022/06/29 05:50:47;;;;;;;;;;;17.50;99.90;;;;;;5112834;28;19927;-77
2022/06/29 05:53:14;;;;;;;;;;;17.60;99.90;;;;;;5112202;28;20002;-78
2022/06/29 05:55:40;;;;;;;;;;;17.50;99.90;;;;;;5096964;28;20006;-78
2022/06/29 05:58:05;;;;;;;;;;;17.60;99.90;;;;;;5096635;28;20032;-78
2022/06/29 06:00:31;;;;;;;;;;;17.60;99.90;;;;;;5115005;28;19908;-78
2022/06/29 06:02:57;;;;;;;;;;;17.60;99.90;;;;;;5129504;28;19923;-78
2022/06/29 06:05:22;;;;;;;;;;;17.70;99.90;;;;;;5151921;28;19927;-78
2022/06/29 06:07:48;;;;;;;;;;;17.60;99.90;;;;;;5138511;28;19919;-78
2022/06/29 06:10:13;;;;;;;;;;;17.60;99.90;;;;;;5113814;28;19923;-78
2022/06/29 06:12:39;;;;;;;;;;;17.60;99.90;;;;;;5126067;28;19923;-77
2022/06/29 06:15:05;;;;;;;;;;;17.70;99.90;;;;;;5117989;28;19929;-77
2022/06/29 06:17:30;;;;;;;;;;;17.60;99.90;;;;;;5085739;28;19920;-76
2022/06/29 06:19:58;;;;;;;;;;;17.60;99.90;;;;;;5108895;28;19990;-77
2022/06/29 06:22:23;;;;;;;;;;;17.60;99.90;;;;;;5108468;28;20408;-78
2022/06/29 06:24:49;;;;;;;;;;;17.70;99.90;;;;;;5109879;28;19924;-77
2022/06/29 06:27:15;;;;;;;;;;;17.70;99.90;;;;;;5095042;28;19927;-77
2022/06/29 06:29:41;;;;;;;;;;;17.80;99.90;;;;;;5114904;28;20382;-78
2022/06/29 06:32:06;;;;;;;;;;;17.90;99.90;;;;;;5129753;27;19919;-78
2022/06/29 06:34:32;;;;;;;;;;;18.10;99.90;;;;;;5108817;27;20014;-77
2022/06/29 06:36:59;;;;;;;;;;;18.20;99.90;;;;;;5118021;27;20318;-77
2022/06/29 06:39:24;;;;;;;;;;;18.40;99.90;;;;;;5124482;27;19919;-77
2022/06/29 06:41:50;;;;;;;;;;;18.50;99.90;;;;;;5134998;27;19976;-77
2022/06/29 06:44:16;;;;;;;;;;;18.70;99.90;;;;;;5132703;27;19919;-78
2022/06/29 06:46:46;;;;;;;;;;;18.80;99.90;;;;;;5134378;27;20429;-77
2022/06/29 06:49:12;;;;;;;;;;;19.00;99.90;;;;;;5115082;28;20269;-77
2022/06/29 06:51:37;;;;;;;;;;;19.20;99.90;;;;;;5097881;28;19930;-77
2022/06/29 06:54:03;;;;;;;;;;;19.40;99.90;;;;;;5119445;27;20006;-77
2022/06/29 06:56:29;;;;;;;;;;;19.50;99.90;;;;;;5130799;27;19924;-77
2022/06/29 06:58:54;;;;;;;;;;;19.60;99.90;;;;;;5134758;27;19919;-78
2022/06/29 07:01:20;;;;;;;;;;;19.80;99.90;;;;;;5119568;27;19923;-78
2022/06/29 07:03:46;;;;;;;;;;;19.90;99.90;;;;;;5114288;28;19919;-78
2022/06/29 07:06:11;;;;;;;;;;;20.10;99.90;;;;;;5114479;28;19920;-78
2022/06/29 07:08:38;;;;;;;;;;;20.30;99.90;;;;;;5110125;28;19931;-77
2022/06/29 07:11:05;;;;;;;;;;;20.40;99.90;;;;;;5097567;28;19920;-78
2022/06/29 07:13:33;;;;;;;;;;;20.60;99.90;;;;;;5097080;28;19923;-78
2022/06/29 07:16:02;;;;;;;;;;;20.70;99.90;;;;;;5114289;28;20384;-78
2022/06/29 07:18:28;;;;;;;;;;;20.80;99.90;;;;;;5113934;28;19930;-78
2022/06/29 07:20:53;;;;;;;;;;;20.90;99.90;;;;;;5113623;28;19923;-77
2022/06/29 07:23:20;;;;;;;;;;;21.00;99.90;;;;;;5113106;27;19976;-78
2022/06/29 07:25:46;;;;;;;;;;;21.10;99.90;;;;;;5106687;28;19919;-77
2022/06/29 07:28:11;;;;;;;;;;;21.20;99.90;;;;;;5113678;28;19969;-77
2022/06/29 07:30:37;;;;;;;;;;;21.30;99.90;;;;;;5114092;28;20256;-77
2022/06/29 07:33:03;;;;;;;;;;;21.40;99.90;;;;;;5127288;27;19919;-77
2022/06/29 07:35:29;;;;;;;;;;;21.40;99.90;;;;;;5128117;27;20007;-78
2022/06/29 07:37:54;;;;;;;;;;;21.60;99.90;;;;;;5113007;28;20377;-78
2022/06/29 07:40:20;;;;;;;;;;;21.60;99.90;;;;;;5112272;28;20020;-78
2022/06/29 07:42:46;;;;;;;;;;;21.70;99.90;;;;;;5104007;27;19920;-78
2022/06/29 07:45:12;;;;;;;;;;;21.80;99.90;;;;;;5112729;28;19965;-77
2022/06/29 07:47:37;;;;;;;;;;;21.90;99.90;;;;;;5113661;28;19920;-78
2022/06/29 07:50:04;;;;;;;;;;;22.00;99.90;;;;;;5112797;28;19930;-77
2022/06/29 07:52:33;;;;;;;;;;;22.10;99.90;;;;;;5112965;28;19931;-77
2022/06/29 07:54:58;;;;;;;;;;;22.20;99.90;;;;;;5126602;27;20388;-77
2022/06/29 07:57:24;;;;;;;;;;;22.30;99.90;;;;;;5096411;28;19923;-77
2022/06/29 07:59:50;;;;;;;;;;;22.40;99.90;;;;;;5126415;27;19923;-77
2022/06/29 08:02:15;;;;;;;;;;;22.50;99.90;;;;;;5113034;28;19928;-77
2022/06/29 08:04:41;;;;;;;;;;;22.60;99.90;;;;;;5127364;27;19920;-77
2022/06/29 08:07:08;;;;;;;;;;;22.70;99.90;;;;;;5095649;28;20213;-77
2022/06/29 08:09:34;;;;;;;;;;;22.80;99.90;;;;;;5113171;28;20303;-77
2022/06/29 08:12:00;;;;;;;;;;;22.90;99.90;;;;;;5130996;27;19953;-77
2022/06/29 08:14:25;;;;;;;;;;;23.10;99.90;;;;;;5122044;27;19955;-77
2022/06/29 08:16:51;;;;;;;;;;;23.20;99.90;;;;;;5113130;28;19920;-78
2022/06/29 08:19:17;;;;;;;;;;;23.30;99.90;;;;;;5128654;28;19964;-77
2022/06/29 08:21:42;;;;;;;;;;;23.40;99.90;;;;;;5136388;27;20028;-76
2022/06/29 08:24:08;;;;;;;;;;;23.50;99.90;;;;;;5130667;27;19914;-77
2022/06/29 08:26:33;;;;;;;;;;;23.40;99.90;;;;;;5102061;28;20380;-76
2022/06/29 08:28:59;;;;;;;;;;;23.20;99.90;;;;;;5116608;28;19924;-77
2022/06/29 08:31:24;;;;;;;;;;;23.10;99.90;;;;;;5130221;27;19923;-76
2022/06/29 08:33:50;;;;;;;;;;;23.10;99.90;;;;;;5130016;27;19919;-75
2022/06/29 08:36:16;;;;;;;;;;;23.20;99.90;;;;;;5114595;28;20026;-77
2022/06/29 08:38:42;;;;;;;;;;;23.40;99.90;;;;;;5114072;28;19963;-76
2022/06/29 08:41:08;;;;;;;;;;;23.60;99.90;;;;;;5114412;27;20396;-76
2022/06/29 08:43:34;;;;;;;;;;;23.80;99.90;;;;;;5127962;27;20384;-78
2022/06/29 08:46:00;;;;;;;;;;;23.90;99.90;;;;;;5126429;27;19924;-77
2022/06/29 08:48:25;;;;;;;;;;;24.00;99.90;;;;;;5116508;27;19924;-77
2022/06/29 08:50:52;;;;;;;;;;;24.20;99.90;;;;;;5112622;27;19926;-77
2022/06/29 08:53:18;;;;;;;;;;;24.50;99.90;;;;;;5117442;27;19973;-76
2022/06/29 08:55:47;;;;;;;;;;;24.50;99.90;;;;;;5104646;28;19931;-76
2022/06/29 08:58:15;;;;;;;;;;;24.60;99.40;;;;;;5126983;27;19926;-76
2022/06/29 09:00:41;;;;;;;;;;;24.60;99.90;;;;;;5111992;28;19924;-77
2022/06/29 09:03:06;;;;;;;;;;;24.60;98.90;;;;;;5111939;28;20023;-77
2022/06/29 09:05:33;;;;;;;;;;;24.60;99.90;;;;;;5112146;28;20501;-77
2022/06/29 09:07:59;;;;;;;;;;;24.80;99.90;;;;;;5111762;28;19919;-76
2022/06/29 09:10:24;;;;;;;;;;;24.90;99.90;;;;;;5125738;27;19927;-76
2022/06/29 09:12:52;;;;;;;;;;;25.00;98.60;;;;;;5111903;28;19923;-76
2022/06/29 09:15:34;;;;;;;;;;;25.20;99.20;;;;;;5116070;27;19942;-77
2022/06/29 09:18:01;;;;;;;;;;;25.40;99.90;;;;;;5117521;27;20403;-76
2022/06/29 09:20:39;;;;;;;;;;;25.50;99.90;;;;;;5124166;27;19969;-76
2022/06/29 09:23:07;;;;;;;;;;;25.60;99.40;;;;;;5111212;28;20384;-78
2022/06/29 09:25:33;;;;;;;;;;;25.60;98.60;;;;;;5113134;28;20329;-77
2022/06/29 09:27:59;;;;;;;;;;;25.60;94.30;;;;;;5113277;27;19963;-77
2022/06/29 09:30:29;;;;;;;;;;;25.50;94.30;;;;;;5108925;28;20455;-78
2022/06/29 09:33:04;;;;;;;;;;;25.50;91.90;;;;;;5095572;28;19919;-77
2022/06/29 09:35:30;;;;;;;;;;;25.40;92.40;;;;;;5113354;28;19923;-77
2022/06/29 09:38:19;;;;;;;;;;;25.50;95.70;;;;;;5094741;28;19972;-78
2022/06/29 09:41:03;;;;;;;;;;;25.60;93.70;;;;;;5107862;28;19957;-78
2022/06/29 09:43:30;;;;;;;;;;;25.50;94.40;;;;;;5098780;28;19919;-77
2022/06/29 09:45:55;;;;;;;;;;;25.50;96.40;;;;;;5112670;28;20322;-78
2022/06/29 09:48:23;;;;;;;;;;;25.50;96.10;;;;;;5114512;28;19923;-77
2022/06/29 09:50:55;;;;;;;;;;;25.40;97.40;;;;;;5112869;28;19930;-78
2022/06/29 09:53:31;;;;;;;;;;;25.60;99.90;;;;;;5111267;28;20404;-77
2022/06/29 09:56:02;;;;;;;;;;;25.80;98.80;;;;;;5111558;28;19920;-76
2022/06/29 09:58:32;;;;;;;;;;;26.00;98.80;;;;;;5111454;28;19924;-77
2022/06/29 10:03:43;;;;;;;;;;;26.10;93.90;;;;;;5121648;27;19930;-77
2022/06/29 10:06:10;;;;;;;;;;;26.10;94.60;;;;;;5104312;28;19923;-77
2022/06/29 10:08:36;;;;;;;;;;;26.00;95.20;;;;;;5098342;28;19927;-77
2022/06/29 10:13:39;;;;;;;;;;;26.10;96.70;;;;;;5110386;27;20372;-76
2022/06/29 10:13:53;;;;;;;;;;;26.20;96.70;;;;;;5127775;27;19919;-76
2022/06/29 10:16:22;;;;;;;;;;;26.30;95.70;;;;;;5098619;27;20006;-76
2022/06/29 10:18:47;;;;;;;;;;;26.30;93.80;;;;;;5121540;27;20050;-76
2022/06/29 10:21:16;;;;;;;;;;;26.30;94.70;;;;;;5108229;28;19999;-76
2022/06/29 10:23:46;;;;;;;;;;;26.30;93.00;;;;;;5111131;28;19927;-77
2022/06/29 10:26:35;;;;;;;;;;;26.10;91.60;;;;;;5144294;27;20062;-76
2022/06/29 10:29:07;;;;;;;;;;;26.10;94.50;;;;;;5102231;28;19963;-76
2022/06/29 10:31:56;;;;;;;;;;;26.20;93.20;;;;;;5115193;27;19927;-76
2022/06/29 10:34:28;;;;;;;;;;;26.30;94.50;;;;;;5105919;28;19920;-77
2022/06/29 10:36:57;;;;;;;;;;;26.20;90.80;;;;;;5106955;27;19926;-77
2022/06/29 10:39:23;;;;;;;;;;;26.10;92.10;;;;;;5114632;28;20415;-77
2022/06/29 10:44:52;;;;;;;;;;;26.00;93.00;;;;;;5120526;27;19924;-77
2022/06/29 10:47:22;;;;;;;;;;;26.20;92.40;;;;;;5110972;28;19920;-78
2022/06/29 10:49:48;;;;;;;;;;;26.30;90.90;;;;;;5113725;27;19919;-77
2022/06/29 10:52:15;;;;;;;;;;;26.30;89.70;;;;;;5114032;28;19931;-77
2022/06/29 10:54:40;;;;;;;;;;;26.40;90.40;;;;;;5128590;27;20269;-77
2022/06/29 10:57:06;;;;;;;;;;;26.30;88.60;;;;;;5114341;28;19930;-76
2022/06/29 10:59:36;;;;;;;;;;;26.20;86.50;;;;;;5100046;27;20006;-77
2022/06/29 11:02:13;;;;;;;;;;;26.20;86.80;;;;;;5117309;27;19927;-77
2022/06/29 11:04:39;;;;;;;;;;;26.30;82.80;;;;;;5114747;28;19920;-77
2022/06/29 11:12:47;;;;;;;;;;;27.00;91.00;;;;;;5104967;27;20254;-77
2022/06/29 11:17:57;;;;;;;;;;;27.50;83.10;;;;;;5131064;27;20369;-77
2022/06/29 11:20:23;;;;;;;;;;;27.60;82.70;;;;;;5126057;28;19931;-77
2022/06/29 11:22:52;;;;;;;;;;;27.60;84.00;;;;;;5120141;28;19923;-77
2022/06/29 11:25:17;;;;;;;;;;;27.50;72.70;;;;;;5139947;27;19923;-77
2022/06/29 11:27:43;;;;;;;;;;;27.60;71.40;;;;;;5136301;27;20550;-77
2022/06/29 11:30:13;;;;;;;;;;;27.80;77.80;;;;;;5139767;27;19919;-77
2022/06/29 11:32:46;;;;;;;;;;;27.90;72.90;;;;;;5123588;27;20268;-77
2022/06/29 11:35:15;;;;;;;;;;;28.00;77.00;;;;;;5101036;28;20027;-77
2022/06/29 11:37:48;;;;;;;;;;;28.00;77.40;;;;;;5109787;27;19968;-77
2022/06/29 11:40:13;;;;;;;;;;;28.10;69.10;;;;;;5121376;27;19919;-78
2022/06/29 11:45:28;;;;;;;;;;;28.20;72.50;;;;;;5102627;28;19919;-78
2022/06/29 11:47:54;;;;;;;;;;;28.20;69.60;;;;;;5113910;28;20390;-78
2022/06/29 11:50:20;;;;;;;;;;;28.10;70.70;;;;;;5113349;28;19923;-77
2022/06/29 11:52:48;;;;;;;;;;;28.00;68.50;;;;;;5110246;27;20079;-78
2022/06/29 11:55:14;;;;;;;;;;;27.80;69.40;;;;;;5088758;28;19926;-78
2022/06/29 11:57:39;;;;;;;;;;;27.80;70.60;;;;;;5107852;28;20291;-78
2022/06/29 12:00:06;;;;;;;;;;;27.90;70.60;;;;;;5112803;28;19973;-77
2022/06/29 12:02:35;;;;;;;;;;;28.10;72.10;;;;;;5126464;27;19923;-77
2022/06/29 12:05:01;;;;;;;;;;;28.20;64.90;;;;;;5126351;27;20326;-77
2022/06/29 12:07:30;;;;;;;;;;;28.40;71.30;;;;;;5126806;27;19920;-77
2022/06/29 12:09:57;;;;;;;;;;;28.50;68.90;;;;;;5096378;28;20345;-78
2022/06/29 12:12:23;;;;;;;;;;;28.60;70.00;;;;;;5112615;28;19920;-78
2022/06/29 12:14:48;;;;;;;;;;;28.60;67.80;;;;;;5111449;28;20006;-77
2022/06/29 12:17:14;;;;;;;;;;;28.50;67.80;;;;;;5113946;28;19920;-78
2022/06/29 12:19:40;;;;;;;;;;;28.40;71.00;;;;;;5095754;28;19924;-78
2022/06/29 12:22:06;;;;;;;;;;;28.50;69.30;;;;;;5093636;28;19923;-77
2022/06/29 12:24:32;;;;;;;;;;;28.80;67.10;;;;;;5104702;27;19971;-78
2022/06/29 12:26:57;;;;;;;;;;;29.00;63.80;;;;;;5112197;28;19920;-78
2022/06/29 12:29:23;;;;;;;;;;;29.10;65.90;;;;;;5109030;27;20253;-79
2022/06/29 12:31:49;;;;;;;;;;;29.30;64.80;;;;;;5100895;27;19919;-77
2022/06/29 12:34:15;;;;;;;;;;;29.40;66.00;;;;;;5121595;27;19920;-78
2022/06/29 12:36:41;;;;;;;;;;;29.50;68.30;;;;;;5078131;28;19927;-77
2022/06/29 12:39:07;;;;;;;;;;;29.40;66.80;;;;;;5112172;28;19942;-78
2022/06/29 12:41:35;;;;;;;;;;;29.40;66.30;;;;;;5095294;28;19930;-78
2022/06/29 12:44:02;;;;;;;;;;;29.50;67.90;;;;;;5112740;28;19927;-77
2022/06/29 12:46:28;;;;;;;;;;;29.70;62.30;;;;;;5108582;27;19939;-77
2022/06/29 12:48:54;;;;;;;;;;;29.90;63.20;;;;;;5110498;28;19951;-77
2022/06/29 12:51:20;;;;;;;;;;;30.20;65.40;;;;;;5111282;28;19963;-78
2022/06/29 12:53:46;;;;;;;;;;;30.40;63.70;;;;;;5112435;28;20276;-77
2022/06/29 12:56:11;;;;;;;;;;;30.50;67.60;;;;;;5111278;28;19919;-77
2022/06/29 12:58:37;;;;;;;;;;;30.80;67.20;;;;;;5111684;28;19924;-78
2022/06/29 13:01:03;;;;;;;;;;;30.70;62.00;;;;;;5111942;28;19930;-78
2022/06/29 13:03:28;;;;;;;;;;;30.90;61.40;;;;;;5112571;27;19920;-78
2022/06/29 13:05:54;;;;;;;;;;;31.00;64.40;;;;;;5132789;27;20029;-79
2022/06/29 13:08:19;;;;;;;;;;;31.10;63.40;;;;;;5115176;27;19976;-78
2022/06/29 13:10:45;;;;;;;;;;;31.10;71.80;;;;;;5112099;28;19931;-78
2022/06/29 13:13:11;;;;;;;;;;;31.10;67.50;;;;;;5120709;27;19926;-77
2022/06/29 13:15:36;;;;;;;;;;;31.20;75.50;;;;;;5132533;27;20069;-77
2022/06/29 13:18:05;;;;;;;;;;;31.30;69.50;;;;;;5105189;28;19920;-78
2022/06/29 13:20:30;;;;;;;;;;;31.50;73.70;;;;;;5111892;28;19924;-78
2022/06/29 13:22:56;;;;;;;;;;;31.60;66.30;;;;;;5094080;28;20299;-78
2022/06/29 13:25:27;;;;;;;;;;;31.70;65.20;;;;;;5112297;28;20048;-78
2022/06/29 13:27:53;;;;;;;;;;;31.50;68.30;;;;;;5111979;28;20033;-78
2022/06/29 13:30:19;;;;;;;;;;;31.30;66.30;;;;;;5113040;27;19920;-78
2022/06/29 13:32:44;;;;;;;;;;;31.00;64.30;;;;;;5132798;27;20371;-78
2022/06/29 13:35:11;;;;;;;;;;;30.70;68.80;;;;;;5115937;28;19923;-79
2022/06/29 13:37:36;;;;;;;;;;;30.40;69.10;;;;;;5125666;27;19924;-78
2022/06/29 13:40:02;;;;;;;;;;;30.20;66.70;;;;;;5112049;28;19920;-78
2022/06/29 13:42:28;;;;;;;;;;;30.00;65.10;;;;;;5111076;28;19927;-78
2022/06/29 13:44:53;;;;;;;;;;;29.90;67.20;;;;;;5094032;28;19968;-78
2022/06/29 13:47:19;;;;;;;;;;;30.00;68.60;;;;;;5111196;28;20150;-78
2022/06/29 13:49:45;;;;;;;;;;;30.20;69.50;;;;;;5110119;28;20056;-78
2022/06/29 13:52:10;;;;;;;;;;;30.70;70.80;;;;;;5110908;28;19920;-79
2022/06/29 13:54:38;;;;;;;;;;;31.40;73.60;;;;;;5114115;28;19924;-78
2022/06/29 13:57:04;;;;;;;;;;;32.00;66.60;;;;;;5115308;28;19950;-78
2022/06/29 13:59:29;;;;;;;;;;;32.20;68.50;;;;;;5114794;28;20389;-78
2022/06/29 14:01:55;;;;;;;;;;;32.20;67.00;;;;;;5111169;28;19924;-78
2022/06/29 14:04:20;;;;;;;;;;;32.20;64.30;;;;;;5110902;28;19926;-77
2022/06/29 14:06:46;;;;;;;;;;;32.20;64.40;;;;;;5118694;28;19923;-77
2022/06/29 14:09:12;;;;;;;;;;;32.20;66.20;;;;;;5131473;28;20406;-78
2022/06/29 14:11:38;;;;;;;;;;;32.20;61.70;;;;;;5110483;28;19927;-80
2022/06/29 14:14:04;;;;;;;;;;;32.30;64.80;;;;;;5111404;28;19977;-78
2022/06/29 14:16:30;;;;;;;;;;;32.20;69.60;;;;;;5111945;28;19932;-78
2022/06/29 14:18:55;;;;;;;;;;;31.70;66.90;;;;;;5113061;28;19980;-77
2022/06/29 14:21:21;;;;;;;;;;;31.40;68.00;;;;;;5115975;28;19924;-79
2022/06/29 14:23:48;;;;;;;;;;;31.30;66.10;;;;;;5131801;28;19920;-78
2022/06/29 14:26:14;;;;;;;;;;;31.20;65.50;;;;;;5117441;28;19973;-78
2022/06/29 14:28:40;;;;;;;;;;;31.40;69.80;;;;;;5110986;28;20578;-79
2022/06/29 14:31:06;;;;;;;;;;;31.70;68.40;;;;;;5125693;28;19926;-77
2022/06/29 14:33:31;;;;;;;;;;;31.70;65.40;;;;;;5110430;28;19959;-78
2022/06/29 14:35:57;;;;;;;;;;;31.30;64.00;;;;;;5126541;28;19920;-78
2022/06/29 14:38:22;;;;;;;;;;;31.00;64.60;;;;;;5131510;28;19926;-75